createdAt,value
2022-11-16T00:00:05.859Z,112.42
2022-11-16T00:02:33.162Z,112.95
2022-11-16T00:04:59.958Z,113.13
2022-11-16T00:07:26.853Z,113.34
2022-11-16T00:09:53.619Z,113.49
2022-11-16T00:12:20.318Z,113.58
2022-11-16T00:14:47.016Z,113.83
2022-11-16T00:17:13.666Z,114.19
2022-11-16T00:19:40.357Z,113.84
2022-11-16T00:22:07.042Z,113.79
2022-11-16T00:24:33.845Z,113.87
2022-11-16T00:27:00.466Z,113.97
2022-11-16T00:29:27.494Z,113.79
2022-11-16T00:31:55.405Z,113.76
2022-11-16T00:34:23.507Z,113.77
2022-11-16T00:36:50.406Z,113.86
2022-11-16T00:39:18.511Z,113.66
2022-11-16T00:41:45.543Z,113.43
2022-11-16T00:44:12.756Z,113.19
2022-11-16T00:46:40.413Z,113.13
2022-11-16T00:49:07.367Z,113.32
2022-11-16T00:51:35.342Z,113.43
2022-11-16T00:54:02.759Z,113.50
2022-11-16T00:56:29.452Z,113.58
2022-11-16T00:58:56.315Z,113.76
2022-11-16T01:01:23.388Z,113.66
2022-11-16T01:03:50.112Z,113.64
2022-11-16T01:06:17.114Z,113.67
2022-11-16T01:08:44.787Z,113.15
2022-11-16T01:11:32.919Z,113.05
2022-11-16T01:14:03.215Z,112.86
2022-11-16T01:16:30.633Z,112.85
2022-11-16T01:18:57.696Z,112.81
2022-11-16T01:21:24.733Z,112.78
2022-11-16T01:23:52.267Z,113.07
2022-11-16T01:26:19.043Z,112.97
2022-11-16T01:28:46.179Z,113.09
2022-11-16T01:31:12.969Z,112.86
2022-11-16T01:33:40.263Z,113.22
2022-11-16T01:36:14.530Z,113.05
2022-11-16T01:38:43.716Z,113.14
2022-11-16T01:41:17.577Z,113.13
2022-11-16T01:43:58.046Z,113.44
2022-11-16T01:46:26.592Z,113.34
2022-11-16T01:49:08.075Z,113.63
2022-11-16T01:51:35.153Z,113.67
2022-11-16T01:54:07.193Z,113.77
2022-11-16T01:56:36.829Z,113.55
2022-11-16T01:59:04.067Z,113.67
2022-11-16T02:01:30.864Z,113.67
2022-11-16T02:03:57.647Z,113.40
2022-11-16T02:06:27.304Z,113.73
2022-11-16T02:09:31.214Z,113.89
2022-11-16T02:12:14.669Z,114.70
2022-11-16T02:15:18.444Z,114.98
2022-11-16T02:18:08.126Z,115.12
2022-11-16T02:20:34.770Z,115.25
2022-11-16T02:23:20.307Z,115.36
2022-11-16T02:25:53.079Z,115.29
2022-11-16T02:28:37.981Z,115.20
2022-11-16T02:31:07.518Z,116.98
2022-11-16T02:33:39.017Z,117.53
2022-11-16T02:36:10.599Z,118.99
2022-11-16T02:38:40.366Z,118.99
2022-11-16T02:41:12.575Z,118.99
2022-11-16T02:44:01.359Z,118.99
2022-11-16T02:46:37.111Z,118.99
2022-11-16T02:49:08.955Z,118.99
2022-11-16T02:51:36.843Z,118.99
2022-11-16T02:54:12.770Z,118.99
2022-11-16T02:56:42.561Z,118.99
2022-11-16T02:59:13.095Z,118.99
2022-11-16T03:02:02.060Z,118.99
2022-11-16T03:04:36.236Z,118.99
2022-11-16T03:07:05.908Z,118.99
2022-11-16T03:09:36.224Z,118.99
2022-11-16T03:12:08.303Z,118.99
2022-11-16T03:14:37.860Z,118.99
2022-11-16T03:17:08.940Z,118.99
2022-11-16T03:19:51.804Z,118.99
2022-11-16T03:22:24.570Z,118.99
2022-11-16T03:24:51.310Z,118.99
2022-11-16T03:27:36.264Z,118.99
2022-11-16T03:30:22.336Z,118.99
2022-11-16T03:33:08.896Z,118.99
2022-11-16T03:35:43.442Z,118.99
2022-11-16T03:38:11.359Z,118.99
2022-11-16T03:40:39.362Z,118.99
2022-11-16T03:43:07.801Z,118.99
2022-11-16T03:45:36.556Z,118.99
2022-11-16T03:48:03.380Z,118.99
2022-11-16T03:50:30.091Z,118.99
2022-11-16T03:52:56.790Z,118.99
2022-11-16T03:55:23.646Z,118.99
2022-11-16T03:57:50.318Z,118.99
2022-11-16T04:00:17.090Z,118.99
2022-11-16T04:02:43.716Z,118.99
2022-11-16T04:05:28.909Z,118.99
2022-11-16T04:08:14.216Z,118.99
2022-11-16T04:10:59.548Z,118.99
2022-11-16T04:13:50.862Z,118.99
2022-11-16T04:16:36.489Z,118.99
2022-11-16T04:19:21.805Z,118.99
2022-11-16T04:22:11.834Z,118.99
2022-11-16T04:24:41.534Z,118.99
2022-11-16T04:27:29.889Z,118.99
2022-11-16T04:29:59.057Z,118.99
2022-11-16T04:32:44.198Z,118.99
2022-11-16T04:35:29.505Z,118.99
2022-11-16T04:37:57.550Z,118.99
2022-11-16T04:40:28.009Z,118.99
2022-11-16T04:42:56.879Z,118.99
2022-11-16T04:45:43.189Z,118.99
2022-11-16T04:48:11.033Z,118.99
2022-11-16T04:50:39.696Z,118.99
2022-11-16T04:53:06.957Z,118.99
2022-11-16T04:55:34.110Z,118.99
2022-11-16T04:58:00.885Z,118.99
2022-11-16T05:00:28.085Z,118.99
2022-11-16T05:03:00.836Z,118.99
2022-11-16T05:05:28.420Z,118.99
2022-11-16T05:07:55.103Z,118.99
2022-11-16T05:10:22.020Z,118.99
2022-11-16T05:12:48.927Z,118.99
2022-11-16T05:15:17.680Z,118.99
2022-11-16T05:17:44.352Z,118.99
2022-11-16T05:20:30.230Z,118.99
2022-11-16T05:22:58.434Z,118.99
2022-11-16T05:25:25.535Z,118.99
2022-11-16T05:27:52.216Z,118.99
2022-11-16T05:30:19.016Z,118.99
2022-11-16T05:32:46.214Z,118.99
2022-11-16T05:35:12.923Z,118.99
2022-11-16T05:37:40.123Z,118.99
2022-11-16T05:40:07.508Z,118.89
2022-11-16T05:42:34.322Z,118.82
2022-11-16T05:45:01.228Z,118.67
2022-11-16T05:47:27.980Z,118.45
2022-11-16T05:49:56.210Z,118.24
2022-11-16T05:52:25.507Z,117.83
2022-11-16T05:54:52.293Z,117.50
2022-11-16T05:57:20.061Z,116.99
2022-11-16T05:59:46.735Z,116.24
2022-11-16T06:02:13.541Z,115.80
2022-11-16T06:04:40.436Z,115.68
2022-11-16T06:07:07.395Z,115.09
2022-11-16T06:09:34.056Z,114.86
2022-11-16T06:12:00.745Z,114.35
2022-11-16T06:14:27.521Z,113.98
2022-11-16T06:16:54.311Z,113.82
2022-11-16T06:19:21.011Z,113.77
2022-11-16T06:21:47.661Z,113.80
2022-11-16T06:24:14.443Z,113.61
2022-11-16T06:26:41.326Z,112.96
2022-11-16T06:29:08.117Z,112.85
2022-11-16T06:31:34.932Z,112.54
2022-11-16T06:34:01.679Z,112.61
2022-11-16T06:36:28.509Z,112.56
2022-11-16T06:38:55.313Z,112.58
2022-11-16T06:41:22.202Z,112.06
2022-11-16T06:43:48.907Z,112.05
2022-11-16T06:46:15.858Z,112.04
2022-11-16T06:48:42.590Z,111.92
2022-11-16T06:51:09.418Z,111.61
2022-11-16T06:53:36.073Z,111.28
2022-11-16T06:56:06.722Z,111.39
2022-11-16T06:58:34.642Z,111.09
2022-11-16T07:01:12.118Z,111.19
2022-11-16T07:03:39.060Z,111.26
2022-11-16T07:06:08.226Z,111.09
2022-11-16T07:08:35.394Z,111.11
2022-11-16T07:11:05.194Z,111.07
2022-11-16T07:13:37.051Z,111.03
2022-11-16T07:16:08.978Z,110.90
2022-11-16T07:18:36.972Z,110.83
2022-11-16T07:21:08.179Z,110.60
2022-11-16T07:23:35.966Z,110.46
2022-11-16T07:26:04.083Z,110.23
2022-11-16T07:28:31.929Z,110.23
2022-11-16T07:31:03.911Z,110.03
2022-11-16T07:33:30.838Z,109.81
2022-11-16T07:36:04.077Z,109.71
2022-11-16T07:38:32.413Z,109.62
2022-11-16T07:41:01.369Z,109.36
2022-11-16T07:43:31.711Z,109.23
2022-11-16T07:46:44.521Z,108.78
2022-11-16T07:48:53.534Z,108.36
2022-11-16T07:51:20.273Z,108.17
2022-11-16T07:53:46.951Z,108.39
2022-11-16T07:56:13.630Z,107.72
2022-11-16T07:58:40.547Z,107.20
2022-11-16T08:01:16.330Z,107.27
2022-11-16T08:03:44.540Z,106.66
2022-11-16T08:06:17.131Z,106.66
2022-11-16T08:08:44.314Z,106.56
2022-11-16T08:11:12.413Z,106.39
2022-11-16T08:13:40.806Z,106.15
2022-11-16T08:16:26.595Z,106.13
2022-11-16T08:18:53.332Z,105.89
2022-11-16T08:21:20.375Z,105.57
2022-11-16T08:23:47.358Z,105.35
2022-11-16T08:26:17.242Z,105.39
2022-11-16T08:28:46.700Z,104.64
2022-11-16T08:31:16.054Z,104.57
2022-11-16T08:33:42.995Z,104.50
2022-11-16T08:36:14.364Z,104.05
2022-11-16T08:38:41.320Z,104.06
2022-11-16T08:41:08.327Z,103.16
2022-11-16T08:43:35.784Z,103.31
2022-11-16T08:46:03.118Z,103.18
2022-11-16T08:48:29.882Z,102.76
2022-11-16T08:51:21.347Z,102.52
2022-11-16T08:53:49.361Z,102.08
2022-11-16T08:56:17.707Z,101.17
2022-11-16T08:58:46.964Z,101.07
2022-11-16T09:01:19.181Z,101.53
2022-11-16T09:03:46.659Z,101.07
2022-11-16T09:06:14.462Z,101.12
2022-11-16T09:08:43.105Z,100.71
2022-11-16T09:11:12.484Z,100.53
2022-11-16T09:13:39.581Z,100.64
2022-11-16T09:16:06.448Z,100.18
2022-11-16T09:18:34.704Z,99.73
2022-11-16T09:21:01.890Z,99.53
2022-11-16T09:23:28.728Z,99.26
2022-11-16T09:25:56.076Z,99.54
2022-11-16T09:28:22.859Z,99.38
2022-11-16T09:30:51.301Z,99.10
2022-11-16T09:33:18.281Z,99.26
2022-11-16T09:35:45.058Z,98.61
2022-11-16T09:38:14.879Z,97.94
2022-11-16T09:40:48.027Z,97.92
2022-11-16T09:43:46.148Z,97.08
2022-11-16T09:46:20.317Z,97.37
2022-11-16T09:48:49.337Z,97.22
2022-11-16T09:51:18.739Z,96.79
2022-11-16T09:53:49.289Z,96.92
2022-11-16T09:56:26.499Z,96.34
2022-11-16T09:59:00.304Z,96.19
2022-11-16T10:01:33.478Z,96.04
2022-11-16T10:04:20.839Z,95.97
2022-11-16T10:06:54.381Z,96.33
2022-11-16T10:09:21.869Z,96.43
2022-11-16T10:11:51.569Z,96.81
2022-11-16T10:14:38.303Z,97.07
2022-11-16T10:17:20.180Z,97.08
2022-11-16T10:20:05.391Z,96.83
2022-11-16T10:22:53.891Z,96.76
2022-11-16T10:25:22.048Z,96.80
2022-11-16T10:27:57.330Z,96.61
2022-11-16T10:30:24.303Z,96.50
2022-11-16T10:33:15.954Z,96.39
2022-11-16T10:35:54.255Z,96.30
2022-11-16T10:38:25.926Z,97.02
2022-11-16T10:40:57.316Z,97.21
2022-11-16T10:43:30.434Z,97.05
2022-11-16T10:46:17.054Z,97.39
2022-11-16T10:49:02.054Z,97.10
2022-11-16T10:51:28.809Z,97.01
2022-11-16T10:53:56.987Z,97.33
2022-11-16T10:56:39.752Z,97.03
2022-11-16T10:59:10.809Z,96.90
2022-11-16T11:01:50.489Z,96.85
2022-11-16T11:04:35.619Z,96.72
2022-11-16T11:07:24.644Z,97.28
2022-11-16T11:09:55.004Z,96.68
2022-11-16T11:12:39.392Z,96.90
2022-11-16T11:15:27.329Z,96.71
2022-11-16T11:18:30.189Z,96.11
2022-11-16T11:21:19.369Z,96.13
2022-11-16T11:23:52.325Z,96.17
2022-11-16T11:26:34.675Z,96.27
2022-11-16T11:29:24.874Z,96.03
2022-11-16T11:32:06.330Z,96.12
2022-11-16T11:34:43.737Z,95.98
2022-11-16T11:37:35.524Z,95.99
2022-11-16T11:40:09.682Z,95.77
2022-11-16T11:42:41.246Z,96.23
2022-11-16T11:45:13.218Z,95.99
2022-11-16T11:47:58.724Z,95.97
2022-11-16T11:50:51.163Z,95.74
2022-11-16T11:53:20.990Z,95.75
2022-11-16T11:55:51.458Z,96.01
2022-11-16T11:58:19.420Z,95.63
2022-11-16T12:01:09.152Z,95.12
2022-11-16T12:03:57.033Z,94.73
2022-11-16T12:06:44.728Z,94.73
2022-11-16T12:10:02.327Z,95.32
2022-11-16T12:12:35.063Z,94.84
2022-11-16T12:15:32.110Z,95.10
2022-11-16T12:18:04.941Z,95.26
2022-11-16T12:20:42.825Z,94.75
2022-11-16T12:23:27.265Z,94.88
2022-11-16T12:25:53.750Z,94.78
2022-11-16T12:28:50.875Z,93.80
2022-11-16T12:31:36.259Z,94.15
2022-11-16T12:34:24.605Z,93.32
2022-11-16T12:37:23.655Z,93.60
2022-11-16T12:40:18.578Z,93.28
2022-11-16T12:43:08.172Z,92.73
2022-11-16T12:45:46.309Z,93.43
2022-11-16T12:48:25.214Z,93.72
2022-11-16T12:51:08.928Z,93.40
2022-11-16T12:53:44.963Z,93.26
2022-11-16T12:56:38.335Z,93.30
2022-11-16T12:59:28.185Z,93.13
2022-11-16T13:02:31.621Z,93.62
2022-11-16T13:05:17.010Z,92.67
2022-11-16T13:08:05.426Z,92.63
2022-11-16T13:10:36.610Z,92.34
2022-11-16T13:13:35.917Z,92.55
2022-11-16T13:16:06.580Z,92.17
2022-11-16T13:18:35.640Z,91.55
2022-11-16T13:21:40.101Z,91.16
2022-11-16T13:24:30.262Z,90.57
2022-11-16T13:27:15.142Z,90.50
2022-11-16T13:30:26.959Z,90.85
2022-11-16T13:33:15.625Z,90.67
2022-11-16T13:35:42.287Z,90.63
2022-11-16T13:38:13.514Z,90.76
2022-11-16T13:40:41.168Z,91.13
2022-11-16T13:43:10.952Z,91.20
2022-11-16T13:46:01.263Z,91.41
2022-11-16T13:48:34.409Z,90.56
2022-11-16T13:51:04.819Z,90.37
2022-11-16T13:56:29.326Z,89.98
2022-11-16T13:58:58.251Z,89.76
2022-11-16T14:01:26.521Z,89.90
2022-11-16T14:04:31.757Z,90.37
2022-11-16T14:06:59.944Z,90.46
2022-11-16T14:09:47.346Z,90.57
2022-11-16T14:12:36.169Z,91.25
2022-11-16T14:15:16.829Z,91.35
2022-11-16T14:17:52.263Z,91.16
2022-11-16T14:20:37.286Z,90.48
2022-11-16T14:23:18.860Z,90.69
2022-11-16T14:25:57.695Z,90.62
2022-11-16T14:28:38.119Z,90.98
2022-11-16T14:31:29.252Z,90.98
2022-11-16T14:33:58.852Z,89.38
2022-11-16T14:36:41.465Z,88.32
2022-11-16T14:39:23.723Z,88.90
2022-11-16T14:41:51.071Z,88.39
2022-11-16T14:44:21.795Z,87.04
2022-11-16T14:46:48.680Z,87.15
2022-11-16T14:49:17.947Z,87.68
2022-11-16T14:51:48.824Z,87.19
2022-11-16T14:54:24.729Z,86.38
2022-11-16T14:57:00.362Z,86.58
2022-11-16T14:59:28.135Z,86.22
2022-11-16T15:01:55.165Z,86.27
2022-11-16T15:04:24.837Z,85.96
2022-11-16T15:06:58.291Z,86.12
2022-11-16T15:09:35.573Z,86.22
2022-11-16T15:12:23.213Z,85.59
2022-11-16T15:14:56.537Z,85.58
2022-11-16T15:17:31.884Z,87.38
2022-11-16T15:20:03.129Z,85.58
2022-11-16T15:22:31.882Z,85.21
2022-11-16T15:25:00.602Z,85.28
2022-11-16T15:27:38.986Z,84.73
2022-11-16T15:30:18.430Z,85.19
2022-11-16T15:32:47.586Z,84.95
2022-11-16T15:35:28.683Z,84.88
2022-11-16T15:38:18.631Z,84.97
2022-11-16T15:40:53.878Z,85.23
2022-11-16T15:43:23.912Z,85.38
2022-11-16T15:45:51.498Z,85.10
2022-11-16T15:48:23.221Z,85.35
2022-11-16T15:51:14.220Z,85.19
2022-11-16T15:53:53.235Z,84.89
2022-11-16T15:56:25.894Z,84.93
2022-11-16T15:58:58.526Z,85.06
2022-11-16T16:01:25.924Z,84.83
2022-11-16T16:04:05.898Z,85.16
2022-11-16T16:06:44.230Z,84.98
2022-11-16T16:09:24.882Z,85.03
2022-11-16T16:11:53.692Z,85.01
2022-11-16T16:14:30.351Z,85.44
2022-11-16T16:16:59.051Z,85.70
2022-11-16T16:19:31.922Z,86.21
2022-11-16T16:21:59.523Z,86.83
2022-11-16T16:24:44.128Z,86.96
2022-11-16T16:27:28.946Z,87.77
2022-11-16T16:29:58.104Z,86.74
2022-11-16T16:32:36.881Z,87.08
2022-11-16T16:35:06.661Z,87.12
2022-11-16T16:37:36.061Z,87.07
2022-11-16T16:40:03.693Z,87.00
2022-11-16T16:42:30.484Z,87.32
2022-11-16T16:44:59.585Z,86.75
2022-11-16T16:47:26.396Z,85.76
2022-11-16T16:49:53.184Z,86.08
2022-11-16T16:52:19.879Z,85.45
2022-11-16T16:54:46.618Z,84.93
2022-11-16T16:57:17.832Z,85.19
2022-11-16T16:59:45.833Z,83.23
2022-11-16T17:02:13.158Z,83.06
2022-11-16T17:04:40.208Z,83.13
2022-11-16T17:07:07.136Z,82.91
2022-11-16T17:09:33.903Z,82.30
2022-11-16T17:12:00.783Z,82.65
2022-11-16T17:14:27.523Z,82.11
2022-11-16T17:16:54.384Z,82.87
2022-11-16T17:19:22.542Z,82.46
2022-11-16T17:21:51.431Z,82.42
2022-11-16T17:24:18.218Z,82.68
2022-11-16T17:26:48.223Z,82.54
2022-11-16T17:29:15.279Z,82.44
2022-11-16T17:31:44.942Z,82.42
2022-11-16T17:34:13.702Z,81.90
2022-11-16T17:36:41.473Z,81.71
2022-11-16T17:39:08.179Z,81.32
2022-11-16T17:41:35.277Z,82.13
2022-11-16T17:44:02.157Z,81.68
2022-11-16T17:46:29.064Z,82.13
2022-11-16T17:48:56.328Z,82.56
2022-11-16T17:51:25.162Z,82.19
2022-11-16T17:53:52.689Z,83.12
2022-11-16T17:56:21.997Z,82.97
2022-11-16T17:58:50.254Z,83.92
2022-11-16T18:01:17.192Z,84.40
2022-11-16T18:03:44.514Z,84.00
2022-11-16T18:06:13.749Z,83.36
2022-11-16T18:08:41.773Z,83.88
2022-11-16T18:11:11.362Z,84.31
2022-11-16T18:13:38.192Z,83.90
2022-11-16T18:16:17.929Z,84.45
2022-11-16T18:18:46.724Z,83.91
2022-11-16T18:21:20.391Z,84.64
2022-11-16T18:23:48.039Z,85.33
2022-11-16T18:26:17.234Z,84.60
2022-11-16T18:28:47.886Z,84.42
2022-11-16T18:31:16.935Z,84.73
2022-11-16T18:33:44.319Z,85.08
2022-11-16T18:36:12.019Z,84.89
2022-11-16T18:38:39.167Z,84.97
2022-11-16T18:41:11.796Z,84.16
2022-11-16T18:43:55.671Z,90.04
2022-11-16T18:46:27.716Z,83.02
2022-11-16T18:48:55.444Z,82.84
2022-11-16T18:51:23.725Z,82.90
2022-11-16T18:53:50.785Z,82.79
2022-11-16T18:56:18.325Z,83.43
2022-11-16T18:58:53.360Z,82.95
2022-11-16T19:01:23.632Z,82.91
2022-11-16T19:03:51.339Z,82.68
2022-11-16T19:06:18.532Z,82.81
2022-11-16T19:08:53.726Z,83.13
2022-11-16T19:11:23.797Z,82.98
2022-11-16T19:13:56.357Z,83.63
2022-11-16T19:16:24.096Z,83.49
2022-11-16T19:18:50.779Z,83.10
2022-11-16T19:21:22.131Z,82.29
2022-11-16T19:23:54.560Z,83.10
2022-11-16T19:26:24.412Z,83.84
2022-11-16T19:28:52.587Z,83.70
2022-11-16T19:31:28.604Z,83.84
2022-11-16T19:34:01.045Z,83.75
2022-11-16T19:36:29.347Z,82.76
2022-11-16T19:38:56.316Z,83.10
2022-11-16T19:41:25.298Z,83.32
2022-11-16T19:44:01.872Z,83.45
2022-11-16T19:46:34.418Z,84.04
2022-11-16T19:49:01.870Z,84.25
2022-11-16T19:51:30.905Z,84.18
2022-11-16T19:53:59.594Z,84.65
2022-11-16T19:56:26.879Z,84.79
2022-11-16T19:58:53.678Z,84.56
2022-11-16T20:01:21.638Z,84.21
2022-11-16T20:03:49.379Z,84.50
2022-11-16T20:06:25.994Z,84.56
2022-11-16T20:08:55.967Z,84.87
2022-11-16T20:11:25.333Z,84.84
2022-11-16T20:13:54.303Z,85.06
2022-11-16T20:16:24.110Z,85.65
2022-11-16T20:18:52.328Z,85.16
2022-11-16T20:21:23.717Z,86.10
2022-11-16T20:23:54.276Z,85.92
2022-11-16T20:26:22.276Z,85.80
2022-11-16T20:28:52.369Z,85.70
2022-11-16T20:31:20.640Z,84.97
2022-11-16T20:33:52.554Z,85.00
2022-11-16T20:36:19.771Z,84.84
2022-11-16T20:38:46.784Z,84.92
2022-11-16T20:41:18.798Z,85.05
2022-11-16T20:43:46.465Z,84.52
2022-11-16T20:46:15.131Z,84.42
2022-11-16T20:48:43.174Z,83.89
2022-11-16T20:51:12.961Z,84.18
2022-11-16T20:53:39.708Z,83.84
2022-11-16T20:56:07.709Z,84.10
2022-11-16T20:58:35.010Z,83.97
2022-11-16T21:01:07.031Z,81.96
2022-11-16T21:03:34.647Z,82.40
2022-11-16T21:06:01.681Z,82.27
2022-11-16T21:08:30.674Z,82.26
2022-11-16T21:10:58.273Z,82.39
2022-11-16T21:13:44.056Z,82.74
2022-11-16T21:16:12.372Z,83.00
2022-11-16T21:18:39.855Z,82.36
2022-11-16T21:21:08.009Z,82.35
2022-11-16T21:23:36.443Z,83.44
2022-11-16T21:26:06.005Z,83.47
2022-11-16T21:28:32.982Z,82.64
2022-11-16T21:31:11.702Z,83.45
2022-11-16T21:33:40.461Z,84.68
2022-11-16T21:36:19.463Z,84.37
2022-11-16T21:38:46.367Z,84.84
2022-11-16T21:41:15.135Z,85.47
2022-11-16T21:43:42.083Z,85.62
2022-11-16T21:46:17.229Z,85.78
2022-11-16T21:48:44.639Z,86.41
2022-11-16T21:51:16.388Z,87.25
2022-11-16T21:53:44.489Z,87.57
2022-11-16T21:56:17.196Z,88.24
2022-11-16T21:58:44.584Z,88.57
2022-11-16T22:01:12.650Z,89.12
2022-11-16T22:03:39.832Z,90.05
2022-11-16T22:06:29.675Z,91.10
2022-11-16T22:08:56.589Z,92.20
2022-11-16T22:11:23.349Z,92.75
2022-11-16T22:13:50.253Z,93.81
2022-11-16T22:16:19.007Z,94.20
2022-11-16T22:18:45.968Z,94.76
2022-11-16T22:21:12.876Z,95.13
2022-11-16T22:23:40.020Z,95.72
2022-11-16T22:26:09.872Z,96.24
2022-11-16T22:28:37.479Z,96.26
2022-11-16T22:31:06.711Z,96.16
2022-11-16T22:33:34.571Z,96.55
2022-11-16T22:36:01.703Z,96.99
2022-11-16T22:38:28.559Z,97.62
2022-11-16T22:40:57.094Z,97.90
2022-11-16T22:43:26.137Z,98.40
2022-11-16T22:46:00.367Z,98.53
2022-11-16T22:48:38.325Z,99.06
2022-11-16T22:51:12.350Z,99.34
2022-11-16T22:53:39.300Z,99.46
2022-11-16T22:56:07.886Z,99.62
2022-11-16T22:58:38.502Z,100.14
2022-11-16T23:01:07.466Z,100.02
2022-11-16T23:03:34.955Z,100.75
2022-11-16T23:06:02.305Z,100.64
2022-11-16T23:08:29.192Z,100.95
2022-11-16T23:11:18.301Z,101.34
2022-11-16T23:14:04.254Z,100.92
2022-11-16T23:16:30.925Z,101.23
2022-11-16T23:18:58.242Z,101.16
2022-11-16T23:21:43.995Z,101.23
2022-11-16T23:24:34.514Z,101.27
2022-11-16T23:27:21.711Z,101.24
2022-11-16T23:29:48.705Z,101.51
2022-11-16T23:32:15.418Z,101.60
2022-11-16T23:34:42.059Z,101.76
2022-11-16T23:37:08.738Z,101.44
2022-11-16T23:39:35.458Z,101.45
2022-11-16T23:42:20.903Z,101.44
2022-11-16T23:44:47.616Z,101.94
2022-11-16T23:47:14.351Z,101.81
2022-11-16T23:49:41.041Z,101.76
2022-11-16T23:52:07.736Z,101.67
2022-11-16T23:54:34.423Z,101.79
2022-11-16T23:57:01.210Z,101.91
2022-11-16T23:59:27.934Z,101.99
